Time;durP1;ratioP1;P1;durP2;ratioP2;P2;SDS_P1;SDS_P2;PMS_P1;PMS_P2;Temp;Humidity;BMP_temperature;BMP_pressure;BME280_temperature;BME280_humidity;BME280_pressure;Samples;Min_cycle;Max_cycle;Signal;HPM_P1;HPM_P2
2023/10/22 00:01:57;;;;;;;5.85;3.40;;;;;;;11.91;100.00;99437.03;6083518;19;20427;-70
2023/10/22 00:04:03;;;;;;;7.30;3.78;;;;;;;11.92;100.00;99437.88;6081834;19;20002;-70
2023/10/22 00:06:06;;;;;;;5.32;3.13;;;;;;;11.89;100.00;99438.09;6081695;19;20525;-70
2023/10/22 00:08:16;;;;;;;10.50;3.80;;;;;;;11.89;100.00;99444.19;6083690;19;20007;-71
2023/10/22 00:10:21;;;;;;;9.18;4.32;;;;;;;11.92;100.00;99437.88;6086269;19;20110;-70
2023/10/22 00:12:26;;;;;;;10.23;3.95;;;;;;;11.91;100.00;99436.19;6081386;19;19999;-70
2023/10/22 00:14:31;;;;;;;7.47;3.70;;;;;;;11.92;100.00;99451.88;6078293;19;20082;-70
2023/10/22 00:16:36;;;;;;;9.30;4.95;;;;;;;11.96;100.00;99444.63;6084509;19;20383;-70
2023/10/22 00:18:41;;;;;;;7.18;3.53;;;;;;;11.96;100.00;99455.16;6083240;19;20003;-70
2023/10/22 00:20:46;;;;;;;11.70;3.47;;;;;;;11.94;100.00;99452.59;6085320;19;20462;-69
2023/10/22 00:22:51;;;;;;;10.70;3.80;;;;;;;11.99;100.00;99455.78;6078111;19;20027;-70
2023/10/22 00:24:56;;;;;;;8.02;3.58;;;;;;;11.96;100.00;99453.34;6084537;19;20007;-73
2023/10/22 00:27:02;;;;;;;7.70;3.45;;;;;;;12.03;100.00;99461.66;6083664;19;20042;-72
2023/10/22 00:29:05;;;;;;;6.90;3.30;;;;;;;11.97;100.00;99452.41;6084260;19;20010;-71
2023/10/22 00:31:09;;;;;;;7.38;3.45;;;;;;;11.98;100.00;99469.03;6082218;19;20014;-70
2023/10/22 00:33:15;;;;;;;10.23;3.75;;;;;;;11.98;100.00;99463.75;6085928;19;20002;-68
2023/10/22 00:35:20;;;;;;;7.05;3.38;;;;;;;11.97;100.00;99483.16;6091315;19;20017;-70
2023/10/22 00:37:25;;;;;;;7.53;2.95;;;;;;;11.94;100.00;99473.66;6088825;19;20006;-70
2023/10/22 00:39:27;;;;;;;8.68;3.60;;;;;;;12.00;100.00;99464.50;6088925;19;20006;-70
2023/10/22 00:41:34;;;;;;;11.13;4.07;;;;;;;12.00;100.00;99482.94;6083879;19;20358;-70
2023/10/22 00:43:39;;;;;;;9.10;3.72;;;;;;;12.01;100.00;99490.75;6088596;19;20024;-69
2023/10/22 00:45:48;;;;;;;7.00;3.10;;;;;;;12.00;100.00;99483.78;6090038;19;20376;-70
2023/10/22 00:47:53;;;;;;;7.80;3.03;;;;;;;11.99;100.00;99492.63;6086952;19;20045;-70
2023/10/22 00:49:59;;;;;;;7.13;3.67;;;;;;;12.00;100.00;99499.56;6089640;19;20005;-69
2023/10/22 00:52:06;;;;;;;5.97;3.30;;;;;;;12.02;100.00;99492.41;6088326;19;20007;-70
2023/10/22 00:54:12;;;;;;;9.35;3.33;;;;;;;12.01;100.00;99500.44;6079982;19;20017;-70
2023/10/22 00:56:22;;;;;;;9.70;3.17;;;;;;;12.04;100.00;99500.22;6088071;19;20464;-70
2023/10/22 00:58:32;;;;;;;6.03;3.00;;;;;;;12.07;100.00;99510.53;6091575;19;20340;-72
2023/10/22 01:00:38;;;;;;;8.55;3.63;;;;;;;12.08;100.00;99513.09;6089640;19;20014;-70
2023/10/22 01:02:47;;;;;;;6.07;3.13;;;;;;;12.05;100.00;99517.69;6087266;19;20253;-69
2023/10/22 01:04:54;;;;;;;10.90;3.22;;;;;;;12.08;100.00;99522.75;6088511;19;20526;-70
2023/10/22 01:06:56;;;;;;;9.18;3.00;;;;;;;12.11;100.00;99522.53;6089310;19;20011;-70
2023/10/22 01:09:02;;;;;;;9.35;3.25;;;;;;;12.11;100.00;99534.88;6089919;19;20007;-70
2023/10/22 01:11:08;;;;;;;8.45;4.68;;;;;;;12.11;100.00;99537.50;6088055;19;20035;-73
2023/10/22 01:13:13;;;;;;;7.00;3.03;;;;;;;12.11;100.00;99538.34;6092387;19;20132;-72
2023/10/22 01:15:21;;;;;;;9.90;3.22;;;;;;;12.12;100.00;99544.47;6090246;19;20025;-72
2023/10/22 01:17:26;;;;;;;4.47;2.38;;;;;;;12.14;100.00;99542.56;6086693;19;20104;-72
2023/10/22 01:19:32;;;;;;;5.38;2.42;;;;;;;12.15;100.00;99554.78;6090674;19;19999;-72
2023/10/22 01:21:37;;;;;;;7.13;2.85;;;;;;;12.15;100.00;99554.78;6087916;19;20011;-73
2023/10/22 01:23:45;;;;;;;4.05;2.40;;;;;;;12.18;100.00;99558.06;6085262;19;20014;-71
2023/10/22 01:25:47;;;;;;;4.18;1.98;;;;;;;12.16;100.00;99567.84;6090019;19;20003;-70
2023/10/22 01:27:52;;;;;;;5.20;2.55;;;;;;;12.17;100.00;99563.44;6088951;19;20010;-71
2023/10/22 01:29:59;;;;;;;3.75;2.00;;;;;;;12.20;100.00;99569.34;6088983;19;20070;-72
2023/10/22 01:32:05;;;;;;;5.20;1.95;;;;;;;12.26;100.00;99568.06;6089049;19;21090;-73
2023/10/22 01:34:10;;;;;;;4.68;2.10;;;;;;;12.34;100.00;99575.47;6086606;19;20006;-75
2023/10/22 01:36:15;;;;;;;5.28;1.88;;;;;;;12.35;100.00;99577.13;6085473;19;20494;-71
2023/10/22 01:38:20;;;;;;;4.13;1.83;;;;;;;12.36;100.00;99590.22;6086545;19;20010;-74
2023/10/22 01:40:27;;;;;;;5.32;2.42;;;;;;;12.43;100.00;99594.13;6087947;19;20007;-74
2023/10/22 01:42:33;;;;;;;8.35;2.72;;;;;;;12.54;100.00;99609.19;6083242;19;20432;-71
2023/10/22 01:44:38;;;;;;;6.13;3.08;;;;;;;12.59;100.00;99609.72;6086387;19;20351;-73
2023/10/22 01:46:44;;;;;;;10.15;3.20;;;;;;;12.61;100.00;99605.19;6087111;19;20054;-72
2023/10/22 01:48:50;;;;;;;9.35;3.45;;;;;;;12.63;100.00;99607.72;6084151;19;20465;-72
2023/10/22 01:50:55;;;;;;;8.43;3.42;;;;;;;12.60;100.00;99621.09;6090163;19;20006;-72
2023/10/22 01:52:57;;;;;;;10.90;4.03;;;;;;;12.59;100.00;99628.19;6085791;19;20020;-72
2023/10/22 01:55:02;;;;;;;6.18;3.30;;;;;;;12.55;100.00;99642.50;6084718;19;20539;-73
2023/10/22 01:57:10;;;;;;;6.03;2.47;;;;;;;12.50;100.00;99644.59;6088103;19;20453;-72
2023/10/22 01:59:15;;;;;;;4.80;1.90;;;;;;;12.42;100.00;99649.53;6088661;19;20015;-72
2023/10/22 02:01:20;;;;;;;6.20;2.22;;;;;;;12.38;100.00;99669.16;6088782;19;20029;-72
2023/10/22 02:03:25;;;;;;;6.35;1.80;;;;;;;12.33;100.00;99677.34;6087112;19;20539;-70
2023/10/22 02:05:35;;;;;;;9.18;2.38;;;;;;;12.18;100.00;99686.25;6087542;19;20070;-70
2023/10/22 02:07:40;;;;;;;4.45;1.90;;;;;;;12.15;100.00;99697.84;6089661;19;21117;-69
2023/10/22 02:09:45;;;;;;;5.50;2.35;;;;;;;12.06;100.00;99699.28;6089127;19;20003;-68
2023/10/22 02:11:50;;;;;;;9.15;2.88;;;;;;;12.03;100.00;99702.13;6088125;19;20038;-69
2023/10/22 02:13:58;;;;;;;5.70;2.22;;;;;;;12.01;100.00;99705.81;6088394;19;20475;-71
2023/10/22 02:16:04;;;;;;;9.55;3.25;;;;;;;12.00;100.00;99722.53;6089762;19;20015;-71
2023/10/22 02:18:09;;;;;;;4.82;2.75;;;;;;;12.02;100.00;99720.66;6087837;19;20037;-71
2023/10/22 02:20:12;;;;;;;7.78;3.10;;;;;;;11.99;100.00;99726.97;6084382;19;20023;-71
2023/10/22 02:22:18;;;;;;;6.13;3.13;;;;;;;11.98;100.00;99734.94;6086380;19;20011;-71
2023/10/22 02:24:23;;;;;;;9.25;3.25;;;;;;;12.04;100.00;99750.38;6087613;19;20034;-72
2023/10/22 02:26:28;;;;;;;8.73;3.10;;;;;;;12.02;100.00;99765.41;6083854;19;20037;-72
2023/10/22 02:28:34;;;;;;;11.32;4.63;;;;;;;12.01;100.00;99766.38;6086883;19;20487;-71
2023/10/22 02:30:41;;;;;;;10.48;4.57;;;;;;;11.97;100.00;99772.75;6088205;19;20019;-71
2023/10/22 02:32:46;;;;;;;12.75;4.88;;;;;;;11.99;100.00;99779.63;6082970;19;20392;-71
2023/10/22 02:34:49;;;;;;;15.15;5.80;;;;;;;11.99;100.00;99791.94;6083389;19;20025;-71
2023/10/22 02:36:55;;;;;;;14.90;5.95;;;;;;;11.93;100.00;99802.84;6087371;19;20017;-71
2023/10/22 02:39:00;;;;;;;13.40;5.30;;;;;;;11.85;100.00;99808.56;6088352;19;20578;-70
2023/10/22 02:41:03;;;;;;;14.43;5.80;;;;;;;11.85;100.00;99819.09;6087482;19;20113;-71
2023/10/22 02:43:08;;;;;;;19.15;6.30;;;;;;;11.70;100.00;99828.78;6087781;19;20352;-71
2023/10/22 02:45:13;;;;;;;12.32;6.03;;;;;;;11.64;100.00;99837.06;6087451;19;20044;-70
2023/10/22 02:47:18;;;;;;;11.43;5.60;;;;;;;11.53;100.00;99844.75;6090934;19;20366;-72
2023/10/22 02:49:23;;;;;;;11.43;6.15;;;;;;;11.44;100.00;99851.41;6090147;19;20042;-73
2023/10/22 02:51:28;;;;;;;15.75;5.88;;;;;;;11.43;100.00;99857.63;6084721;19;20007;-69
2023/10/22 02:53:31;;;;;;;14.95;5.90;;;;;;;11.32;100.00;99860.03;6085057;19;20014;-69
2023/10/22 02:55:36;;;;;;;12.20;5.85;;;;;;;11.28;100.00;99869.03;6081644;19;20399;-69
2023/10/22 02:57:41;;;;;;;11.55;6.53;;;;;;;11.29;100.00;99871.56;6089964;19;20011;-69
2023/10/22 02:59:47;;;;;;;14.85;5.57;;;;;;;11.31;100.00;99890.75;6087626;19;20006;-71
2023/10/22 03:01:53;;;;;;;13.93;6.65;;;;;;;11.30;100.00;99896.94;6086221;19;20015;-70
2023/10/22 03:04:02;;;;;;;12.18;5.65;;;;;;;11.24;100.00;99906.97;6089130;19;20057;-72
2023/10/22 03:06:08;;;;;;;12.18;5.35;;;;;;;11.16;100.00;99902.16;6087225;19;20031;-70
2023/10/22 03:08:14;;;;;;;9.43;5.32;;;;;;;11.16;100.00;99918.81;6083282;19;20490;-71
2023/10/22 03:10:16;;;;;;;8.95;3.88;;;;;;;11.10;100.00;99913.03;6087269;19;20410;-71
2023/10/22 03:12:21;;;;;;;9.40;4.15;;;;;;;11.01;100.00;99916.19;6082823;19;20003;-69
2023/10/22 03:14:26;;;;;;;8.88;4.35;;;;;;;11.00;100.00;99923.22;6086647;19;20561;-69
2023/10/22 03:16:31;;;;;;;10.18;3.50;;;;;;;10.97;100.00;99932.13;6086767;19;20070;-69
2023/10/22 03:18:36;;;;;;;8.02;3.47;;;;;;;10.95;100.00;99931.38;6081354;19;20355;-69
2023/10/22 03:20:44;;;;;;;10.95;3.97;;;;;;;10.93;100.00;99938.50;6085178;19;20082;-72
2023/10/22 03:22:46;;;;;;;9.13;4.78;;;;;;;10.90;100.00;99938.69;6083220;19;20555;-72
2023/10/22 03:24:51;;;;;;;12.30;3.83;;;;;;;11.00;100.00;99952.13;6087712;19;20070;-70
2023/10/22 03:26:57;;;;;;;9.80;3.88;;;;;;;10.96;100.00;99954.09;6074846;19;19999;-70
2023/10/22 03:29:02;;;;;;;9.93;4.25;;;;;;;10.94;100.00;99961.22;6084019;19;20106;-70
2023/10/22 03:31:07;;;;;;;10.75;4.22;;;;;;;10.93;100.00;99954.28;6086507;19;20038;-75
2023/10/22 03:33:14;;;;;;;10.20;3.20;;;;;;;10.95;100.00;99968.19;6084617;19;20003;-69
2023/10/22 03:35:20;;;;;;;11.38;4.30;;;;;;;10.95;100.00;99970.81;6083827;19;20424;-69
2023/10/22 03:37:27;;;;;;;8.45;3.45;;;;;;;10.91;100.00;99971.06;6085026;19;20126;-70
2023/10/22 03:39:41;;;;;;;7.65;3.53;;;;;;;10.95;100.00;99981.34;6085952;19;19999;-69
2023/10/22 03:41:43;;;;;;;10.52;3.63;;;;;;;10.96;100.00;99984.81;6085116;19;20560;-70
2023/10/22 03:44:02;;;;;;;7.25;3.45;;;;;;;10.95;100.00;99980.47;6079904;19;20546;-70
2023/10/22 03:46:07;;;;;;;10.68;4.60;;;;;;;10.92;100.00;99989.38;6085574;19;20014;-70
2023/10/22 03:48:12;;;;;;;16.48;6.93;;;;;;;10.91;100.00;99995.56;6084469;19;20005;-70
2023/10/22 03:50:17;;;;;;;16.67;6.93;;;;;;;10.91;100.00;100005.25;6084313;19;20070;-69
2023/10/22 03:52:22;;;;;;;10.98;5.25;;;;;;;10.91;100.00;99999.97;6081463;19;20007;-69
2023/10/22 03:54:36;;;;;;;11.55;4.15;;;;;;;10.87;100.00;100007.16;6085005;19;20303;-69
2023/10/22 03:56:41;;;;;;;13.18;4.13;;;;;;;10.91;100.00;100016.59;6079441;19;20018;-72
2023/10/22 03:58:46;;;;;;;9.88;3.90;;;;;;;10.93;100.00;100006.00;6082771;19;20003;-72
2023/10/22 04:00:51;;;;;;;6.60;3.03;;;;;;;10.94;100.00;100029.56;6082053;19;20006;-73
2023/10/22 04:02:57;;;;;;;10.60;3.55;;;;;;;10.91;100.00;100024.47;6083345;19;20003;-71
2023/10/22 04:05:02;;;;;;;6.30;3.22;;;;;;;10.92;100.00;100034.06;6083730;19;20045;-71
2023/10/22 04:07:04;;;;;;;7.18;2.85;;;;;;;10.95;100.00;100044.41;6084783;19;20011;-70
2023/10/22 04:09:09;;;;;;;6.18;2.97;;;;;;;10.93;100.00;100059.44;6084671;19;20010;-71
2023/10/22 04:11:21;;;;;;;16.10;3.25;;;;;;;10.87;100.00;100070.25;6084869;19;20156;-72
2023/10/22 04:13:26;;;;;;;6.97;3.10;;;;;;;10.88;100.00;100057.97;6082697;19;20173;-70
2023/10/22 04:15:31;;;;;;;5.22;2.67;;;;;;;10.90;100.00;100067.47;6082686;19;20023;-69
2023/10/22 04:17:36;;;;;;;5.47;2.80;;;;;;;10.87;100.00;100070.25;6081063;19;20010;-72
2023/10/22 04:19:42;;;;;;;7.47;3.00;;;;;;;10.93;100.00;100077.81;6083231;19;20015;-73
2023/10/22 04:21:49;;;;;;;6.30;2.85;;;;;;;10.93;100.00;100080.44;6076610;19;20018;-70
2023/10/22 04:23:54;;;;;;;8.23;3.45;;;;;;;10.90;100.00;100078.00;6081556;19;20062;-72
2023/10/22 04:25:59;;;;;;;12.55;3.35;;;;;;;10.90;100.00;100079.75;6083875;19;20350;-70
2023/10/22 04:28:06;;;;;;;7.78;2.85;;;;;;;10.90;100.00;100085.88;6077310;19;20042;-70
2023/10/22 04:30:12;;;;;;;8.52;2.58;;;;;;;10.89;100.00;100083.31;6081396;19;20471;-72
2023/10/22 04:32:18;;;;;;;6.28;2.88;;;;;;;10.85;100.00;100085.28;6081996;19;20566;-70
2023/10/22 04:34:23;;;;;;;8.30;2.88;;;;;;;10.86;100.00;100094.84;6078167;19;20014;-72
2023/10/22 04:36:28;;;;;;;5.32;2.83;;;;;;;10.88;100.00;100098.25;6080798;19;20010;-69
2023/10/22 04:38:31;;;;;;;5.72;2.95;;;;;;;10.88;100.00;100108.75;6082365;19;20412;-69
2023/10/22 04:40:36;;;;;;;;;;;;;;;10.89;100.00;100109.59;6085818;19;20648;-72
2023/10/22 04:42:41;;;;;;;5.70;2.97;;;;;;;10.89;100.00;100118.34;6082281;19;19903;-72
2023/10/22 04:44:48;;;;;;;11.55;3.15;;;;;;;10.92;100.00;100133.09;6082419;19;20035;-69
2023/10/22 04:46:54;;;;;;;7.35;3.38;;;;;;;10.89;100.00;100128.84;6082910;19;20011;-71
2023/10/22 04:48:59;;;;;;;5.47;3.13;;;;;;;10.84;100.00;100128.25;6083215;19;20479;-69
2023/10/22 04:51:09;;;;;;;11.35;3.00;;;;;;;10.80;100.00;100131.13;6083172;19;20409;-69
2023/10/22 04:53:11;;;;;;;5.95;2.53;;;;;;;10.79;100.00;100130.25;6074200;19;20006;-69
2023/10/22 04:55:16;;;;;;;5.70;2.85;;;;;;;10.73;100.00;100122.72;6079476;19;19998;-71
2023/10/22 04:57:18;;;;;;;6.22;2.78;;;;;;;10.67;100.00;100123.03;6083585;19;20002;-72
2023/10/22 04:59:23;;;;;;;3.85;2.22;;;;;;;10.66;100.00;100116.91;6076238;19;20006;-72
2023/10/22 05:01:31;;;;;;;4.50;2.47;;;;;;;10.68;100.00;100128.19;6083618;19;20108;-72
2023/10/22 05:03:36;;;;;;;4.93;2.38;;;;;;;10.70;100.00;100130.75;6084507;19;20078;-73
2023/10/22 05:05:41;;;;;;;3.97;2.30;;;;;;;10.65;100.00;100132.78;6083859;19;20007;-70
2023/10/22 05:07:46;;;;;;;7.75;2.38;;;;;;;10.67;100.00;100133.56;6083773;19;20038;-69
2023/10/22 05:09:49;;;;;;;6.65;2.35;;;;;;;10.67;100.00;100137.03;6085451;19;20025;-69
2023/10/22 05:11:53;;;;;;;5.25;2.25;;;;;;;10.66;100.00;100144.97;6082820;19;20030;-70
2023/10/22 05:13:59;;;;;;;4.82;2.47;;;;;;;10.68;100.00;100140.50;6082006;19;20038;-69
2023/10/22 05:16:04;;;;;;;6.20;2.50;;;;;;;10.63;100.00;100142.50;6082658;19;20011;-70
2023/10/22 05:18:12;;;;;;;6.75;2.63;;;;;;;10.63;100.00;100153.03;6083762;19;20485;-72
2023/10/22 05:20:22;;;;;;;5.97;2.88;;;;;;;10.59;100.00;100152.34;6088245;19;20007;-70
2023/10/22 05:22:24;;;;;;;8.38;3.05;;;;;;;10.55;100.00;100162.13;6083589;19;20010;-72
2023/10/22 05:24:30;;;;;;;4.53;2.65;;;;;;;10.52;100.00;100157.03;6087732;19;20022;-72
2023/10/22 05:26:36;;;;;;;7.10;2.72;;;;;;;10.54;100.00;100168.34;6088297;19;20361;-74
2023/10/22 05:28:41;;;;;;;7.63;2.80;;;;;;;10.52;100.00;100166.72;6084067;19;20440;-72
2023/10/22 05:30:49;;;;;;;10.05;2.88;;;;;;;10.55;100.00;100172.66;6088406;19;20011;-73
2023/10/22 05:33:13;;;;;;;7.00;3.22;;;;;;;10.62;100.00;100175.81;6084565;19;20052;-71
2023/10/22 05:35:19;;;;;;;3.95;2.38;;;;;;;10.58;100.00;100182.16;6081993;19;20042;-72
2023/10/22 05:37:24;;;;;;;5.63;2.97;;;;;;;10.55;100.00;100188.41;6086111;19;20411;-73
2023/10/22 05:39:29;;;;;;;10.85;2.95;;;;;;;10.55;100.00;100187.56;6089414;19;20054;-73
2023/10/22 05:41:34;;;;;;;5.72;2.80;;;;;;;10.56;100.00;100197.16;6089197;19;20032;-71
2023/10/22 05:43:36;;;;;;;5.00;3.13;;;;;;;10.52;100.00;100204.34;6087768;19;19999;-69
2023/10/22 05:45:41;;;;;;;10.02;2.67;;;;;;;10.53;100.00;100211.31;6087192;19;20083;-69
2023/10/22 05:47:50;;;;;;;6.13;3.10;;;;;;;10.57;100.00;100211.16;6088367;19;20011;-70
2023/10/22 05:50:00;;;;;;;7.65;2.88;;;;;;;10.53;100.00;100219.19;6088782;19;20492;-70
2023/10/22 05:52:06;;;;;;;5.63;2.97;;;;;;;10.53;100.00;100223.56;6088590;19;20009;-70
2023/10/22 05:54:11;;;;;;;12.07;3.40;;;;;;;10.64;100.00;100226.53;6081935;19;20007;-70
2023/10/22 05:56:16;;;;;;;7.18;2.95;;;;;;;10.61;100.00;100225.81;6084698;19;20003;-70
2023/10/22 05:58:21;;;;;;;6.72;3.30;;;;;;;10.60;100.00;100229.38;6089916;19;20007;-69
2023/10/22 06:00:27;;;;;;;11.77;3.63;;;;;;;10.62;100.00;100233.63;6081843;19;20007;-69
2023/10/22 06:02:32;;;;;;;9.27;4.00;;;;;;;10.70;100.00;100241.97;6090112;19;20637;-69
2023/10/22 06:04:44;;;;;;;8.15;4.22;;;;;;;10.70;100.00;100236.72;6085694;19;20066;-71
2023/10/22 06:06:54;;;;;;;10.35;4.05;;;;;;;10.74;100.00;100248.78;6089061;19;20372;-71
2023/10/22 06:08:59;;;;;;;10.25;3.90;;;;;;;10.79;100.00;100245.06;6088529;19;20003;-69
2023/10/22 06:11:06;;;;;;;7.43;3.70;;;;;;;10.80;100.00;100247.63;6091161;19;20011;-70
2023/10/22 06:13:12;;;;;;;8.35;3.83;;;;;;;10.80;100.00;100257.28;6089313;19;20006;-72
2023/10/22 06:15:17;;;;;;;8.68;3.55;;;;;;;10.79;100.00;100253.78;6084169;19;20274;-72
2023/10/22 06:17:25;;;;;;;6.65;3.60;;;;;;;10.78;100.00;100259.97;6089363;19;20010;-72
2023/10/22 06:19:30;;;;;;;7.97;3.58;;;;;;;10.76;100.00;100264.47;6088358;19;20006;-72
2023/10/22 06:21:35;;;;;;;7.80;3.47;;;;;;;10.67;100.00;100268.41;6087521;19;20006;-73
2023/10/22 06:23:43;;;;;;;8.50;3.85;;;;;;;10.65;100.00;100265.00;6083406;19;20007;-73
2023/10/22 06:25:53;;;;;;;11.48;4.28;;;;;;;10.62;100.00;100274.81;6084757;19;20007;-73
2023/10/22 06:27:58;;;;;;;7.97;3.55;;;;;;;10.54;100.00;100276.03;6086061;19;20055;-73
2023/10/22 06:30:03;;;;;;;9.48;3.47;;;;;;;10.50;100.00;100282.38;6081943;19;20026;-72
2023/10/22 06:32:08;;;;;;;7.60;3.42;;;;;;;10.48;100.00;100284.25;6081815;19;20010;-72
2023/10/22 06:34:17;;;;;;;7.75;3.20;;;;;;;10.44;100.00;100295.81;6086751;19;20014;-73
2023/10/22 06:36:24;;;;;;;5.88;3.38;;;;;;;10.41;100.00;100301.22;6081831;19;20081;-72
2023/10/22 06:38:29;;;;;;;10.27;3.58;;;;;;;10.42;100.00;100315.19;6086526;19;20475;-72
2023/10/22 06:40:37;;;;;;;9.38;3.50;;;;;;;10.38;100.00;100311.03;6088756;19;20006;-73
2023/10/22 06:42:46;;;;;;;6.68;3.20;;;;;;;10.36;100.00;100318.13;6087003;19;20495;-72
2023/10/22 06:44:50;;;;;;;8.50;3.45;;;;;;;10.36;100.00;100323.38;6087127;19;20003;-72
2023/10/22 06:46:56;;;;;;;8.60;3.88;;;;;;;10.32;100.00;100326.16;6088277;19;20002;-72
2023/10/22 06:49:03;;;;;;;12.43;3.47;;;;;;;10.31;100.00;100326.22;6086576;19;20038;-72
2023/10/22 06:51:12;;;;;;;8.75;3.78;;;;;;;10.41;100.00;100337.16;6088868;19;20010;-72
2023/10/22 06:53:17;;;;;;;9.43;3.47;;;;;;;10.44;100.00;100339.63;6074224;19;20360;-72
2023/10/22 06:55:22;;;;;;;9.10;3.35;;;;;;;10.36;100.00;100344.38;6086636;19;20478;-73
2023/10/22 06:57:29;;;;;;;8.18;3.30;;;;;;;10.33;100.00;100351.47;6089531;19;20530;-71
2023/10/22 06:59:34;;;;;;;5.93;3.22;;;;;;;10.35;100.00;100354.06;6086917;19;20351;-72
2023/10/22 07:01:39;;;;;;;9.00;3.55;;;;;;;10.40;100.00;100357.31;6082894;19;20011;-72
2023/10/22 07:03:48;;;;;;;10.75;4.15;;;;;;;10.41;100.00;100364.25;6090006;19;20008;-73
2023/10/22 07:05:53;;;;;;;16.10;3.97;;;;;;;10.43;100.00;100370.28;6088779;19;20014;-72
2023/10/22 07:08:01;;;;;;;9.57;4.30;;;;;;;10.44;100.00;100366.72;6088352;19;20042;-72
2023/10/22 07:10:10;;;;;;;11.40;4.47;;;;;;;10.42;100.00;100372.97;6085779;19;20417;-73
2023/10/22 07:12:13;;;;;;;7.88;3.97;;;;;;;10.35;100.00;100382.94;6084770;19;20026;-73
2023/10/22 07:14:26;;;;;;;12.00;3.97;;;;;;;10.35;100.00;100382.94;6085931;19;20006;-72
2023/10/22 07:16:34;;;;;;;9.20;3.53;;;;;;;10.34;100.00;100381.22;6085428;19;20031;-72
2023/10/22 07:18:44;;;;;;;8.05;3.75;;;;;;;10.31;100.00;100387.47;6084718;19;20357;-74
2023/10/22 07:20:52;;;;;;;9.90;4.63;;;;;;;10.33;100.00;100390.03;6085329;19;20364;-73
2023/10/22 07:23:01;;;;;;;7.97;4.07;;;;;;;10.41;100.00;100403.66;6084231;19;20002;-72
2023/10/22 07:25:08;;;;;;;15.55;4.50;;;;;;;10.43;100.00;100407.06;6078605;19;20723;-73
2023/10/22 07:27:24;;;;;;;9.38;4.22;;;;;;;10.44;100.00;100411.38;6086464;19;20009;-72
2023/10/22 07:29:35;;;;;;;6.88;3.53;;;;;;;10.49;100.00;100414.66;6082166;19;20038;-71
2023/10/22 07:31:40;;;;;;;8.18;3.60;;;;;;;10.47;100.00;100419.13;6000204;19;2004839;-72
2023/10/22 07:33:51;;;;;;;9.80;4.97;;;;;;;10.50;100.00;100418.13;6083486;19;20042;-72
2023/10/22 07:35:57;;;;;;;11.93;3.78;;;;;;;10.51;100.00;100428.56;6078766;19;20112;-71
2023/10/22 07:38:12;;;;;;;9.35;3.80;;;;;;;10.55;100.00;100427.50;6085300;19;20007;-72
2023/10/22 07:40:23;;;;;;;8.50;3.45;;;;;;;10.60;100.00;100427.28;6084886;19;20164;-72
2023/10/22 07:42:29;;;;;;;15.25;4.25;;;;;;;10.61;100.00;100430.75;6085276;19;20007;-72
2023/10/22 07:44:37;;;;;;;8.63;3.60;;;;;;;10.66;100.00;100428.75;6085161;19;20010;-75
2023/10/22 07:46:43;;;;;;;11.13;4.18;;;;;;;10.69;100.00;100431.25;6083265;19;20010;-76
2023/10/22 07:48:48;;;;;;;10.02;4.45;;;;;;;10.74;100.00;100440.63;6083881;19;20098;-75
2023/10/22 07:50:50;;;;;;;10.70;4.00;;;;;;;10.79;100.00;100444.81;6086706;19;20344;-72
2023/10/22 07:53:00;;;;;;;11.82;4.70;;;;;;;10.78;100.00;100443.97;6081060;19;20296;-71
2023/10/22 07:55:07;;;;;;;9.77;3.67;;;;;;;10.86;100.00;100444.44;6083444;19;20372;-75
2023/10/22 07:57:12;;;;;;;12.65;4.15;;;;;;;10.95;100.00;100445.75;6080666;19;20010;-75
2023/10/22 07:59:17;;;;;;;10.88;3.53;;;;;;;11.02;100.00;100446.34;6086560;19;20006;-77
2023/10/22 08:01:23;;;;;;;13.95;4.20;;;;;;;11.03;100.00;100448.03;6081752;19;20016;-76
2023/10/22 08:03:32;;;;;;;9.07;3.88;;;;;;;11.02;100.00;100462.97;6084759;19;20102;-73
2023/10/22 08:05:37;;;;;;;8.88;3.88;;;;;;;11.03;100.00;100463.81;6086157;19;20006;-74
2023/10/22 08:07:45;;;;;;;15.70;4.60;;;;;;;11.00;100.00;100462.16;6088061;19;20003;-73
2023/10/22 08:09:50;;;;;;;8.48;3.78;;;;;;;11.04;100.00;100463.75;6090379;19;20011;-72
2023/10/22 08:11:56;;;;;;;7.15;4.03;;;;;;;11.12;100.00;100466.84;6088987;19;20647;-75
2023/10/22 08:14:02;;;;;;;10.35;3.60;;;;;;;11.23;100.00;100473.38;6083299;19;20050;-72
2023/10/22 08:16:07;;;;;;;9.75;4.40;;;;;;;11.27;100.00;100475.78;6081893;19;20038;-73
2023/10/22 08:18:15;;;;;;;7.70;3.47;;;;;;;11.35;100.00;100470.97;6084002;19;20012;-74
2023/10/22 08:20:31;;;;;;;8.52;4.07;;;;;;;11.49;100.00;100474.72;6086365;19;20383;-73
2023/10/22 08:22:36;;;;;;;7.35;3.33;;;;;;;11.64;100.00;100481.84;6085669;19;20006;-75
2023/10/22 08:25:03;;;;;;;10.55;3.75;;;;;;;11.74;100.00;100487.47;6083074;19;20401;-74
2023/10/22 08:27:05;;;;;;;10.40;3.55;;;;;;;11.80;100.00;100480.13;6082928;19;20033;-74
2023/10/22 08:29:13;;;;;;;6.57;3.45;;;;;;;11.81;100.00;100481.81;6084749;19;20010;-74
2023/10/22 08:31:21;;;;;;;6.03;3.47;;;;;;;11.79;100.00;100490.72;6078675;19;20009;-75
2023/10/22 08:33:29;;;;;;;7.55;3.35;;;;;;;11.68;100.00;100487.78;6085827;19;20006;-72
2023/10/22 08:35:34;;;;;;;8.13;3.47;;;;;;;11.65;100.00;100497.53;6085790;19;20010;-75
2023/10/22 08:37:43;;;;;;;6.47;3.97;;;;;;;11.64;100.00;100495.00;6084199;19;20471;-74
2023/10/22 08:39:52;;;;;;;9.23;3.50;;;;;;;11.66;100.00;100501.00;6085258;19;20042;-76
2023/10/22 08:42:07;;;;;;;6.55;3.17;;;;;;;11.70;100.00;100492.03;6086040;19;20014;-74
2023/10/22 08:44:16;;;;;;;9.55;3.65;;;;;;;11.68;100.00;100493.06;5996363;19;2004510;-74
2023/10/22 08:46:28;;;;;;;7.78;3.45;;;;;;;11.72;100.00;100500.72;6107402;19;20042;-73
2023/10/22 08:49:04;;;;;;;7.85;3.95;;;;;;;11.72;100.00;100505.97;6108225;19;20090;-75
2023/10/22 08:51:10;;;;;;;13.35;3.80;;;;;;;11.82;100.00;100507.22;6066380;19;20010;-74
2023/10/22 08:53:17;;;;;;;8.80;3.55;;;;;;;11.79;100.00;100507.34;6080842;19;20576;-74
2023/10/22 08:55:33;;;;;;;7.28;3.30;;;;;;;11.77;100.00;100522.41;6089857;19;20470;-74
2023/10/22 08:57:48;;;;;;;9.73;3.15;;;;;;;11.81;100.00;100516.03;5984309;19;2004850;-73
2023/10/22 08:59:56;;;;;;;9.10;3.10;;;;;;;11.86;100.00;100523.75;6086305;19;20004;-73
2023/10/22 09:01:59;;;;;;;9.93;4.13;;;;;;;11.88;100.00;100526.31;6065083;19;20006;-73
2023/10/22 09:04:25;;;;;;;14.45;3.60;;;;;;;11.86;100.00;100532.47;6086410;19;20014;-74
2023/10/22 09:06:35;;;;;;;7.90;3.78;;;;;;;11.93;100.00;100533.03;6089227;19;22467;-74
2023/10/22 09:08:46;;;;;;;10.13;3.35;;;;;;;12.16;100.00;100539.72;6089202;19;19999;-74
2023/10/22 09:10:57;;;;;;;7.88;3.05;;;;;;;12.26;100.00;100542.75;6084874;19;20011;-73
2023/10/22 09:13:29;;;;;;;5.93;3.60;;;;;;;12.36;100.00;100540.50;6089636;19;20011;-73
2023/10/22 09:15:36;;;;;;;7.28;2.97;;;;;;;12.33;100.00;100543.28;5982058;19;2004833;-73
2023/10/22 09:17:45;;;;;;;6.32;3.50;;;;;;;12.35;100.00;100546.66;6083382;19;20017;-73
2023/10/22 09:19:58;;;;;;;4.07;2.55;;;;;;;12.43;100.00;100553.25;6085085;19;20018;-74
2023/10/22 09:22:24;;;;;;;6.22;3.15;;;;;;;12.47;100.00;100549.53;6081723;19;20028;-72
2023/10/22 09:24:29;;;;;;;7.75;3.53;;;;;;;12.79;100.00;100548.72;6084791;19;20537;-73
2023/10/22 09:26:50;;;;;;;9.00;3.25;;;;;;;12.88;100.00;100556.16;6077107;19;20017;-73
2023/10/22 09:29:19;;;;;;;5.60;3.00;;;;;;;13.05;100.00;100555.22;6084361;19;20007;-74
2023/10/22 09:31:27;;;;;;;10.18;3.13;;;;;;;13.14;100.00;100560.84;6083284;19;20003;-72
2023/10/22 09:34:22;;;;;;;8.48;2.92;;;;;;;13.48;100.00;100560.75;6079930;19;20007;-74
2023/10/22 09:36:35;;;;;;;12.05;3.20;;;;;;;13.63;100.00;100562.50;5983159;19;2004678;-72
2023/10/22 09:39:06;;;;;;;7.43;4.38;;;;;;;13.69;100.00;100567.47;6080666;19;20006;-72
2023/10/22 09:41:33;;;;;;;5.47;2.30;;;;;;;13.72;100.00;100566.44;6081707;19;20086;-73
2023/10/22 09:43:41;;;;;;;8.18;2.72;;;;;;;13.78;100.00;100569.53;6082544;19;20035;-72
2023/10/22 09:45:51;;;;;;;6.32;2.83;;;;;;;13.90;100.00;100573.28;6081123;19;20475;-74